Time;durP1;ratioP1;P1;durP2;ratioP2;P2;SDS_P1;SDS_P2;PMS_P1;PMS_P2;Temp;Humidity;BMP_temperature;BMP_pressure;BME280_temperature;BME280_humidity;BME280_pressure;Samples;Min_cycle;Max_cycle;Signal;HPM_P1;HPM_P2
2023/08/27 00:01:18;;;;;;;6.20;2.80;;;;;;;17.33;100.00;97412.36;106651;1270;22622;-77
2023/08/27 00:03:55;;;;;;;6.10;3.10;;;;;;;17.33;100.00;97402.79;106559;1279;25477;-77
2023/08/27 00:06:24;;;;;;;4.50;2.50;;;;;;;17.34;100.00;97392.38;106628;1272;24205;-78
2023/08/27 00:08:52;;;;;;;6.20;3.20;;;;;;;17.35;100.00;97391.70;106502;1269;23874;-78
2023/08/27 00:11:20;;;;;;;7.10;3.20;;;;;;;17.39;100.00;97392.79;106881;1263;22624;-78
2023/08/27 00:13:48;;;;;;;5.60;2.70;;;;;;;17.41;100.00;97399.36;106965;1258;22600;-77
2023/08/27 00:16:16;;;;;;;6.10;3.50;;;;;;;17.40;100.00;97396.85;106526;1264;22528;-77
2023/08/27 00:18:44;;;;;;;5.20;2.80;;;;;;;17.40;100.00;97402.92;106489;1266;22538;-77
2023/08/27 00:21:12;;;;;;;5.70;3.40;;;;;;;17.38;100.00;97409.27;106536;1267;22782;-77
2023/08/27 00:23:40;;;;;;;5.90;3.10;;;;;;;17.37;100.00;97425.58;106548;1270;22559;-82
2023/08/27 00:26:08;;;;;;;4.30;2.90;;;;;;;17.37;100.00;97438.13;107068;1264;22694;-82
2023/08/27 00:28:36;;;;;;;7.60;2.50;;;;;;;17.46;100.00;97450.77;106850;1276;180762;-82
2023/08/27 00:31:05;;;;;;;5.20;2.80;;;;;;;17.59;100.00;97448.02;106992;1273;25301;-81
2023/08/27 00:33:33;;;;;;;5.10;2.70;;;;;;;17.68;100.00;97430.08;106892;1279;22569;-82
2023/08/27 00:36:01;;;;;;;7.00;2.80;;;;;;;17.73;100.00;97435.48;106936;1277;22618;-80
2023/08/27 00:38:29;;;;;;;6.50;2.80;;;;;;;17.75;100.00;97438.70;106900;1269;22544;-82
2023/08/27 00:40:57;;;;;;;6.10;2.80;;;;;;;17.71;100.00;97451.00;106906;1270;22543;-82
2023/08/27 00:43:25;;;;;;;4.10;2.90;;;;;;;17.70;100.00;97455.20;106853;1266;22533;-81
2023/08/27 00:45:54;;;;;;;6.40;2.80;;;;;;;17.73;100.00;97456.33;106953;1266;22550;-81
2023/08/27 00:48:23;;;;;;;5.60;3.00;;;;;;;17.76;100.00;97459.61;106871;1280;25333;-82
2023/08/27 00:50:51;;;;;;;2.70;2.40;;;;;;;17.88;100.00;97471.73;106984;1268;23123;-81
2023/08/27 00:53:19;;;;;;;5.90;2.60;;;;;;;18.05;100.00;97483.77;106944;1265;25413;-81
2023/08/27 00:55:50;;;;;;;4.40;2.50;;;;;;;18.26;100.00;97488.02;106965;1270;23078;-81
2023/08/27 00:58:19;;;;;;;6.20;2.60;;;;;;;18.27;100.00;97504.09;106910;1271;22654;-81
2023/08/27 01:00:48;;;;;;;3.90;2.50;;;;;;;18.26;100.00;97503.75;106871;1280;25485;-81
2023/08/27 01:03:16;;;;;;;2.30;1.90;;;;;;;18.33;100.00;97509.04;106837;1278;22632;-81
2023/08/27 01:05:45;;;;;;;3.50;2.30;;;;;;;18.41;100.00;97512.07;106868;1273;23788;-81
2023/08/27 01:08:32;;;;;;;4.70;3.00;;;;;;;18.49;100.00;97504.52;106835;1270;23292;-81
2023/08/27 01:11:35;;;;;;;4.40;3.00;;;;;;;18.43;100.00;97507.77;106911;1268;22529;-80
2023/08/27 01:14:07;;;;;;;5.70;3.50;;;;;;;18.43;100.00;97502.83;106540;1276;25273;-82
2023/08/27 01:16:37;;;;;;;8.30;2.90;;;;;;;18.43;100.00;97494.10;106581;1271;22677;-83
2023/08/27 01:19:12;;;;;;;6.00;3.50;;;;;;;18.42;100.00;97489.40;106519;1274;22674;-82
2023/08/27 01:21:44;;;;;;;5.20;2.20;;;;;;;18.35;100.00;97473.69;106478;1273;23253;-83
2023/08/27 01:24:12;;;;;;;4.80;3.00;;;;;;;18.38;100.00;97446.31;106480;1280;23026;-81
2023/08/27 01:27:04;;;;;;;7.80;2.80;;;;;;;18.36;100.00;97409.67;106022;1287;24235;-83
2023/08/27 01:30:11;;;;;;;6.50;3.20;;;;;;;18.27;100.00;97393.91;106421;1280;25355;-83
2023/08/27 01:32:51;;;;;;;3.90;2.80;;;;;;;18.25;100.00;97379.83;106444;1276;22678;-84
2023/08/27 01:35:20;;;;;;;3.00;2.40;;;;;;;18.17;100.00;97370.73;106557;1271;22537;-82
2023/08/27 01:37:48;;;;;;;2.80;2.20;;;;;;;18.19;100.00;97373.42;106497;1276;22826;-82
2023/08/27 01:40:18;;;;;;;5.30;2.90;;;;;;;18.29;100.00;97347.58;106068;1271;22548;-83
2023/08/27 01:42:47;;;;;;;5.30;3.10;;;;;;;18.32;100.00;97354.88;106504;1276;22974;-82
2023/08/27 01:45:17;;;;;;;3.50;2.70;;;;;;;18.26;100.00;97361.79;106526;1283;22645;-81
2023/08/27 01:47:45;;;;;;;4.90;3.10;;;;;;;18.24;100.00;97376.55;106134;1286;24314;-83
2023/08/27 01:50:13;;;;;;;5.10;3.10;;;;;;;18.28;100.00;97340.93;106346;1278;22626;-82
2023/08/27 01:52:41;;;;;;;5.00;3.00;;;;;;;18.37;100.00;97348.50;106866;1279;23009;-80
2023/08/27 01:55:09;;;;;;;5.70;3.40;;;;;;;18.40;100.00;97355.64;106911;1263;22624;-81
2023/08/27 01:57:38;;;;;;;4.60;3.20;;;;;;;18.37;100.00;97349.83;106884;1263;22639;-82
2023/08/27 02:00:09;;;;;;;5.30;2.70;;;;;;;18.35;100.00;97348.32;106884;1268;22609;-82
2023/08/27 02:02:44;;;;;;;4.20;2.90;;;;;;;18.40;100.00;97347.45;106839;1272;23186;-82
2023/08/27 02:05:12;;;;;;;7.40;3.20;;;;;;;18.40;100.00;97359.85;106611;1268;25233;-82
2023/08/27 02:07:41;;;;;;;5.70;3.60;;;;;;;18.32;100.00;97366.18;106854;1270;22747;-82
2023/08/27 02:10:09;;;;;;;5.00;3.20;;;;;;;18.26;100.00;97365.99;106917;1265;22539;-83
2023/08/27 02:12:38;;;;;;;4.70;3.20;;;;;;;18.24;100.00;97358.00;106894;1277;22540;-82
2023/08/27 02:15:09;;;;;;;4.30;2.90;;;;;;;18.26;100.00;97365.27;106945;1269;22549;-83
2023/08/27 02:17:38;;;;;;;4.70;2.90;;;;;;;18.31;100.00;97354.24;106955;1270;22570;-83
2023/08/27 02:20:09;;;;;;;10.50;3.60;;;;;;;18.28;100.00;97342.65;106833;1279;25389;-83
2023/08/27 02:22:38;;;;;;;6.00;4.20;;;;;;;18.27;100.00;97335.15;106937;1273;24455;-83
2023/08/27 02:25:12;;;;;;;7.00;3.40;;;;;;;18.46;100.00;97323.86;106899;1270;25389;-83
2023/08/27 02:27:40;;;;;;;;;;;;;;;18.65;100.00;97310.20;107036;1276;23226;-83
2023/08/27 02:30:10;;;;;;;5.00;2.80;;;;;;;18.77;100.00;97305.36;106998;1280;24206;-87
2023/08/27 02:33:38;;;;;;;5.00;3.30;;;;;;;18.97;100.00;97311.42;107064;1280;25240;-86
2023/08/27 02:36:07;;;;;;;2.80;2.40;;;;;;;19.03;100.00;97317.77;107496;1270;22548;-86
2023/08/27 02:38:41;;;;;;;3.80;2.70;;;;;;;19.07;100.00;97314.15;106924;1277;22568;-86
2023/08/27 02:41:10;;;;;;;4.70;3.30;;;;;;;19.07;100.00;97319.61;107012;1270;23419;-86
2023/08/27 02:43:39;;;;;;;4.40;2.90;;;;;;;19.07;100.00;97316.34;107022;1256;22647;-84
2023/08/27 02:46:07;;;;;;;6.00;2.90;;;;;;;19.07;100.00;97314.62;106964;1280;25230;-84
2023/08/27 02:48:37;;;;;;;4.40;2.50;;;;;;;19.09;100.00;97316.66;107006;1273;23345;-85
2023/08/27 02:51:05;;;;;;;5.30;2.80;;;;;;;19.10;100.00;97323.63;106860;1277;22593;-83
2023/08/27 02:53:33;;;;;;;3.50;2.40;;;;;;;19.02;100.00;97331.40;107482;1264;22554;-83
2023/08/27 02:56:01;;;;;;;3.10;2.60;;;;;;;19.05;100.00;97326.39;108618;1274;25370;-83
2023/08/27 02:58:30;;;;;;;3.90;2.50;;;;;;;19.09;100.00;97324.25;108603;1279;22492;-83
2023/08/27 03:00:58;;;;;;;6.00;2.80;;;;;;;19.11;100.00;97323.73;108290;1279;24237;-81
2023/08/27 03:03:26;;;;;;;3.70;2.70;;;;;;;19.12;100.00;97325.37;107181;1274;26505;-80
2023/08/27 03:05:54;;;;;;;4.60;2.60;;;;;;;19.15;100.00;97317.92;106889;1280;22543;-81
2023/08/27 03:08:22;;;;;;;4.60;2.60;;;;;;;19.20;100.00;97324.08;106861;1279;23316;-80
2023/08/27 03:10:50;;;;;;;7.90;2.90;;;;;;;19.17;100.00;97324.59;106942;1279;23254;-78
2023/08/27 03:13:19;;;;;;;3.80;2.70;;;;;;;19.01;100.00;97326.23;106969;1269;22750;-80
2023/08/27 03:15:47;;;;;;;3.90;2.80;;;;;;;18.90;100.00;97335.27;106952;1278;24210;-81
2023/08/27 03:18:15;;;;;;;7.60;2.70;;;;;;;18.78;100.00;97337.96;107059;1279;22583;-81
2023/08/27 03:20:43;;;;;;;3.50;2.20;;;;;;;18.76;100.00;97328.66;107050;1276;22579;-81
2023/08/27 03:23:11;;;;;;;6.00;2.90;;;;;;;18.73;100.00;97325.65;106999;1267;24254;-81
2023/08/27 03:25:40;;;;;;;4.30;2.50;;;;;;;18.63;100.00;97323.21;106895;1279;22781;-81
2023/08/27 03:28:37;;;;;;;5.70;2.90;;;;;;;18.52;100.00;97325.38;106969;1279;22658;-83
2023/08/27 03:31:08;;;;;;;6.20;3.00;;;;;;;18.44;100.00;97327.34;106959;1268;25276;-84
2023/08/27 03:33:39;;;;;;;6.10;2.90;;;;;;;18.31;100.00;97332.73;107007;1279;24210;-82
2023/08/27 03:36:08;;;;;;;3.60;2.70;;;;;;;18.23;100.00;97327.99;106897;1279;25342;-83
2023/08/27 03:38:38;;;;;;;5.10;3.10;;;;;;;18.21;100.00;97324.67;106632;1272;23188;-82
2023/08/27 03:41:06;;;;;;;9.70;3.10;;;;;;;18.29;100.00;97325.13;106836;1270;22586;-82
2023/08/27 03:43:34;;;;;;;4.10;2.90;;;;;;;18.25;100.00;97317.89;106907;1279;25413;-81
2023/08/27 03:46:02;;;;;;;4.80;2.40;;;;;;;18.17;100.00;97309.67;106977;1265;22568;-81
2023/08/27 03:48:31;;;;;;;6.40;2.60;;;;;;;18.09;100.00;97311.38;106965;1279;25295;-81
2023/08/27 03:50:59;;;;;;;5.00;2.90;;;;;;;18.01;100.00;97317.25;107043;1268;22577;-81
2023/08/27 03:53:27;;;;;;;4.60;2.90;;;;;;;17.91;100.00;97317.13;106955;1275;25342;-81
2023/08/27 03:56:01;;;;;;;6.10;3.40;;;;;;;17.81;100.00;97316.85;106938;1265;22771;-82
2023/08/27 03:58:31;;;;;;;5.80;3.10;;;;;;;17.72;100.00;97318.69;106894;1278;22545;-81
2023/08/27 04:00:59;;;;;;;6.30;2.90;;;;;;;17.64;100.00;97316.27;106893;1280;23293;-82
2023/08/27 04:03:28;;;;;;;4.80;2.80;;;;;;;17.60;100.00;97310.36;106825;1278;22553;-81
2023/08/27 04:05:57;;;;;;;3.60;2.80;;;;;;;17.55;100.00;97304.25;106912;1278;22609;-82
2023/08/27 04:08:25;;;;;;;7.20;3.30;;;;;;;17.51;100.00;97299.83;106820;1279;25352;-82
2023/08/27 04:10:53;;;;;;;3.50;2.70;;;;;;;17.50;100.00;97300.73;106928;1279;22695;-82
2023/08/27 04:13:22;;;;;;;5.80;2.90;;;;;;;17.48;100.00;97297.29;106833;1271;22533;-82
2023/08/27 04:16:06;;;;;;;4.90;2.60;;;;;;;17.58;100.00;97295.13;106779;1279;26519;-82
2023/08/27 04:18:34;;;;;;;7.80;3.60;;;;;;;17.81;100.00;97290.21;106850;1264;24179;-81
2023/08/27 04:21:03;;;;;;;9.00;5.00;;;;;;;17.87;100.00;97291.50;106828;1264;25337;-82
2023/08/27 04:23:33;;;;;;;9.10;4.70;;;;;;;17.85;100.00;97296.23;106736;1271;22699;-82
2023/08/27 04:26:03;;;;;;;5.70;4.00;;;;;;;17.80;100.00;97296.83;106935;1279;22527;-82
2023/08/27 04:28:33;;;;;;;7.80;4.10;;;;;;;17.75;100.00;97295.21;106891;1256;25619;-81
2023/08/27 04:31:01;;;;;;;6.80;3.70;;;;;;;17.72;100.00;97297.66;106961;1269;22531;-82
2023/08/27 04:33:29;;;;;;;6.70;3.70;;;;;;;17.71;100.00;97304.03;106929;1279;24388;-82
2023/08/27 04:35:57;;;;;;;7.90;3.20;;;;;;;17.74;100.00;97302.21;106951;1272;25476;-83
2023/08/27 04:38:25;;;;;;;3.60;2.60;;;;;;;17.77;100.00;97304.86;106980;1270;22539;-83
2023/08/27 04:40:53;;;;;;;6.90;3.00;;;;;;;17.83;100.00;97310.67;106973;1278;24196;-83
2023/08/27 04:43:21;;;;;;;8.00;3.00;;;;;;;17.89;100.00;97310.33;106993;1279;23055;-83
2023/08/27 04:45:50;;;;;;;8.60;3.10;;;;;;;17.93;100.00;97315.06;106953;1256;22565;-82
2023/08/27 04:48:19;;;;;;;3.70;2.80;;;;;;;17.98;100.00;97316.00;106996;1263;22590;-82
2023/08/27 04:50:48;;;;;;;9.60;2.90;;;;;;;18.08;100.00;97310.42;107000;1279;24357;-83
2023/08/27 04:53:16;;;;;;;6.10;2.90;;;;;;;18.34;100.00;97307.61;106901;1279;25277;-83
2023/08/27 04:55:43;;;;;;;5.60;2.40;;;;;;;18.48;100.00;97303.23;106878;1279;23269;-82
2023/08/27 04:58:14;;;;;;;4.70;2.80;;;;;;;18.69;100.00;97306.06;106978;1272;22959;-83
2023/08/27 05:00:43;;;;;;;3.80;2.30;;;;;;;18.86;100.00;97301.12;106919;1272;24293;-83
2023/08/27 05:03:11;;;;;;;6.10;3.40;;;;;;;19.00;100.00;97298.44;106832;1279;22545;-83
2023/08/27 05:05:43;;;;;;;6.60;3.60;;;;;;;19.06;100.00;97294.95;106991;1276;24199;-83
2023/08/27 05:08:13;;;;;;;6.80;3.40;;;;;;;19.05;100.00;97290.89;106957;1279;23347;-82
2023/08/27 05:10:41;;;;;;;7.50;3.60;;;;;;;19.13;100.00;97282.16;106856;1279;22538;-82
2023/08/27 05:13:09;;;;;;;8.00;3.50;;;;;;;19.03;100.00;97274.63;106854;1279;22636;-83
2023/08/27 05:15:38;;;;;;;5.40;2.70;;;;;;;19.01;100.00;97267.42;106825;1280;22529;-81
2023/08/27 05:18:09;;;;;;;6.60;4.00;;;;;;;19.11;100.00;97262.31;106829;1268;24380;-82
2023/08/27 05:20:38;;;;;;;4.40;2.50;;;;;;;19.27;100.00;97261.28;106782;1279;23536;-81
2023/08/27 05:23:06;;;;;;;5.20;3.30;;;;;;;19.48;100.00;97264.41;106874;1276;23560;-81
2023/08/27 05:25:35;;;;;;;7.90;3.10;;;;;;;19.54;100.00;97278.38;106894;1279;25287;-81
2023/08/27 05:28:03;;;;;;;4.50;2.80;;;;;;;19.49;100.00;97277.70;106892;1270;27703;-81
2023/08/27 05:30:31;;;;;;;3.50;2.40;;;;;;;19.49;100.00;97275.27;106995;1272;22546;-81
2023/08/27 05:32:59;;;;;;;7.20;2.60;;;;;;;19.52;100.00;97273.67;106878;1271;22684;-82
2023/08/27 05:35:28;;;;;;;6.20;2.50;;;;;;;19.65;100.00;97278.61;107035;1272;22694;-81
2023/08/27 05:37:56;;;;;;;5.60;3.00;;;;;;;19.76;100.00;97279.36;106915;1277;25684;-81
2023/08/27 05:40:25;;;;;;;7.30;3.70;;;;;;;19.75;100.00;97285.13;107056;1272;22712;-81
2023/08/27 05:42:53;;;;;;;6.90;3.60;;;;;;;19.68;100.00;97285.69;106821;1275;22591;-82
2023/08/27 05:45:21;;;;;;;5.70;3.50;;;;;;;19.66;100.00;97276.52;106872;1262;25294;-82
2023/08/27 05:47:50;;;;;;;7.60;3.20;;;;;;;19.59;100.00;97281.72;106917;1279;24254;-82
2023/08/27 05:50:18;;;;;;;5.50;3.30;;;;;;;19.56;100.00;97286.30;106966;1265;24210;-82
2023/08/27 05:52:46;;;;;;;8.70;4.00;;;;;;;19.47;100.00;97288.99;107020;1272;25507;-81
2023/08/27 05:55:14;;;;;;;5.40;3.30;;;;;;;19.43;100.00;97285.36;107048;1268;22552;-82
2023/08/27 05:57:43;;;;;;;5.30;3.60;;;;;;;19.41;100.00;97287.29;107091;1273;22561;-84
2023/08/27 06:00:13;;;;;;;5.40;3.40;;;;;;;19.35;100.00;97288.46;107313;1280;22622;-82
2023/08/27 06:02:41;;;;;;;7.70;3.80;;;;;;;19.36;100.00;97283.15;107013;1265;22776;-82
2023/08/27 06:05:11;;;;;;;4.40;3.50;;;;;;;19.41;100.00;97282.77;107002;1276;22524;-81
2023/08/27 06:07:39;;;;;;;7.40;5.10;;;;;;;19.43;100.00;97285.59;106985;1268;22548;-81
2023/08/27 06:10:08;;;;;;;6.20;4.50;;;;;;;19.42;100.00;97284.02;106888;1279;24374;-81
2023/08/27 06:12:36;;;;;;;8.40;4.20;;;;;;;19.40;100.00;97284.08;107032;1272;24265;-81
2023/08/27 06:15:05;;;;;;;6.50;4.70;;;;;;;19.41;100.00;97289.25;106769;1272;22584;-82
2023/08/27 06:17:33;;;;;;;6.60;5.10;;;;;;;19.40;100.00;97297.57;106922;1280;25330;-82
2023/08/27 06:20:01;;;;;;;8.80;5.30;;;;;;;19.37;100.00;97297.85;106839;1271;22668;-82
2023/08/27 06:22:29;;;;;;;5.60;4.50;;;;;;;19.36;100.00;97296.42;106890;1277;25010;-82
2023/08/27 06:24:57;;;;;;;6.40;5.20;;;;;;;19.32;100.00;97292.64;106958;1265;22530;-83
2023/08/27 06:27:26;;;;;;;8.60;5.90;;;;;;;19.32;100.00;97281.86;107021;1264;22538;-82
2023/08/27 06:29:54;;;;;;;10.60;5.90;;;;;;;19.33;100.00;97278.77;107325;1275;26661;-82
2023/08/27 06:32:22;;;;;;;7.50;5.60;;;;;;;19.40;100.00;97273.30;107424;1278;22619;-81
2023/08/27 06:34:50;;;;;;;9.70;5.80;;;;;;;19.43;100.00;97264.75;106969;1260;22576;-81
2023/08/27 06:37:18;;;;;;;7.70;6.10;;;;;;;19.48;100.00;97265.44;106990;1265;23289;-81
2023/08/27 06:39:46;;;;;;;7.00;5.80;;;;;;;19.57;100.00;97272.86;107058;1272;25307;-81
2023/08/27 06:42:15;;;;;;;10.00;6.00;;;;;;;19.68;100.00;97275.06;108280;1276;22502;-79
2023/08/27 06:44:45;;;;;;;8.00;5.50;;;;;;;19.78;100.00;97268.07;108305;1279;22554;-80
2023/08/27 06:47:13;;;;;;;9.30;5.60;;;;;;;19.92;100.00;97270.86;108210;1280;22769;-81
2023/08/27 06:49:41;;;;;;;7.90;5.10;;;;;;;20.03;100.00;97271.05;108013;1268;24156;-81
2023/08/27 06:52:09;;;;;;;6.80;5.10;;;;;;;20.15;100.00;97276.09;106916;1272;24398;-81
2023/08/27 06:54:37;;;;;;;7.50;5.30;;;;;;;20.24;100.00;97280.92;107014;1279;22729;-80
2023/08/27 06:57:06;;;;;;;6.80;4.30;;;;;;;20.31;100.00;97275.60;107066;1280;22577;-82
2023/08/27 06:59:34;;;;;;;6.90;5.60;;;;;;;20.37;100.00;97279.08;106914;1268;23134;-80
2023/08/27 07:02:03;;;;;;;6.70;5.80;;;;;;;20.39;100.00;97285.05;106966;1277;24234;-81
2023/08/27 07:04:32;;;;;;;5.90;3.80;;;;;;;20.43;100.00;97295.79;107002;1279;22672;-81
2023/08/27 07:07:01;;;;;;;7.60;5.30;;;;;;;20.55;100.00;97294.44;107088;1271;25476;-84
2023/08/27 07:09:29;;;;;;;6.90;3.70;;;;;;;20.64;100.00;97296.54;106907;1266;22755;-83
2023/08/27 07:11:57;;;;;;;9.00;5.60;;;;;;;20.80;100.00;97292.66;107030;1279;22638;-82
2023/08/27 07:14:25;;;;;;;9.50;5.80;;;;;;;20.92;100.00;97296.73;107058;1272;22530;-82
2023/08/27 07:16:53;;;;;;;7.30;5.50;;;;;;;20.89;100.00;97299.13;106960;1266;22632;-81
2023/08/27 07:19:21;;;;;;;9.20;5.60;;;;;;;20.87;100.00;97296.70;107007;1279;22643;-81
2023/08/27 07:21:49;;;;;;;10.10;6.50;;;;;;;20.90;100.00;97303.75;107318;1279;24385;-80
2023/08/27 07:24:17;;;;;;;8.30;7.50;;;;;;;20.83;100.00;97307.79;107069;1278;22598;-81
2023/08/27 07:26:45;;;;;;;8.30;6.80;;;;;;;20.75;100.00;97307.33;106995;1279;25928;-83
2023/08/27 07:29:14;;;;;;;10.20;7.10;;;;;;;20.72;100.00;97308.02;107064;1279;24216;-81
2023/08/27 07:31:42;;;;;;;10.50;7.00;;;;;;;20.70;100.00;97313.08;106830;1270;25458;-82
2023/08/27 07:34:10;;;;;;;8.10;6.80;;;;;;;20.67;100.00;97315.80;106888;1279;23917;-80
2023/08/27 07:36:38;;;;;;;8.00;6.50;;;;;;;20.64;100.00;97314.30;106904;1279;25418;-82
2023/08/27 07:39:06;;;;;;;8.00;7.10;;;;;;;20.69;100.00;97308.45;106585;1268;22612;-81
2023/08/27 07:41:34;;;;;;;8.80;7.10;;;;;;;20.69;100.00;97305.56;106980;1265;24449;-81
2023/08/27 07:44:02;;;;;;;9.00;8.10;;;;;;;20.64;100.00;97299.67;106993;1279;22538;-81
2023/08/27 07:46:30;;;;;;;8.80;7.60;;;;;;;20.59;100.00;97305.73;106919;1268;22906;-81
2023/08/27 07:48:58;;;;;;;9.70;8.80;;;;;;;20.51;100.00;97310.09;106883;1280;23326;-81
2023/08/27 07:51:26;;;;;;;11.30;9.00;;;;;;;20.47;100.00;97309.05;106809;1279;25233;-81
2023/08/27 07:53:54;;;;;;;9.40;8.40;;;;;;;20.47;100.00;97300.91;106908;1280;22574;-81
2023/08/27 07:56:23;;;;;;;14.80;10.80;;;;;;;20.57;100.00;97299.61;106906;1279;25406;-81
2023/08/27 07:58:52;;;;;;;11.20;10.20;;;;;;;20.70;100.00;97305.73;107002;1279;22656;-80
2023/08/27 08:01:20;;;;;;;12.50;11.20;;;;;;;20.76;100.00;97307.64;106947;1264;24449;-80
2023/08/27 08:03:48;;;;;;;13.80;10.60;;;;;;;20.91;100.00;97302.36;106929;1268;22550;-82
2023/08/27 08:06:16;;;;;;;12.50;10.50;;;;;;;21.04;100.00;97302.83;106991;1258;24467;-81
2023/08/27 08:08:44;;;;;;;11.10;10.00;;;;;;;21.17;100.00;97299.31;106989;1279;22660;-82
2023/08/27 08:11:12;;;;;;;10.70;9.40;;;;;;;21.25;100.00;97297.55;106960;1276;22580;-82
2023/08/27 08:13:41;;;;;;;13.50;9.70;;;;;;;21.23;100.00;97298.01;106936;1280;22667;-80
2023/08/27 08:16:09;;;;;;;12.30;10.50;;;;;;;21.25;100.00;97300.05;106973;1279;24324;-81
2023/08/27 08:18:37;;;;;;;6.90;6.00;;;;;;;21.35;100.00;97300.58;107024;1266;22585;-81
2023/08/27 08:21:05;;;;;;;11.50;10.40;;;;;;;21.51;100.00;97298.80;106843;1280;25361;-81
2023/08/27 08:23:33;;;;;;;12.20;11.00;;;;;;;21.57;100.00;97297.65;106822;1280;22541;-80
2023/08/27 08:26:02;;;;;;;12.90;11.60;;;;;;;21.60;100.00;97291.39;106809;1266;25514;-81
2023/08/27 08:28:30;;;;;;;12.80;11.50;;;;;;;21.52;100.00;97289.01;106794;1277;23524;-80
2023/08/27 08:30:58;;;;;;;11.90;10.80;;;;;;;21.48;100.00;97285.48;106803;1280;22535;-81
2023/08/27 08:33:26;;;;;;;11.10;10.00;;;;;;;21.56;100.00;97286.91;106847;1280;24227;-80
2023/08/27 08:35:54;;;;;;;11.10;9.90;;;;;;;21.60;100.00;97291.39;106890;1270;25346;-80
2023/08/27 08:38:22;;;;;;;11.00;9.80;;;;;;;21.55;100.00;97288.55;106913;1264;25461;-83
2023/08/27 08:40:58;;;;;;;11.70;10.50;;;;;;;21.60;100.00;97285.44;106951;1278;22555;-80
2023/08/27 08:43:42;;;;;;;11.50;9.80;;;;;;;21.67;100.00;97279.91;107033;1280;25567;-81
2023/08/27 08:46:13;;;;;;;;;;;;;;;21.77;100.00;97279.21;107223;1275;22540;-81
2023/08/27 08:48:42;;;;;;;11.00;8.10;;;;;;;21.79;100.00;97277.66;107435;1270;22657;-81
2023/08/27 08:51:12;;;;;;;11.20;8.90;;;;;;;21.90;100.00;97272.36;107167;1275;25971;-81
2023/08/27 08:53:50;;;;;;;11.90;8.40;;;;;;;21.95;100.00;97267.36;107054;1273;22615;-80
2023/08/27 08:56:35;;;;;;;11.50;8.80;;;;;;;21.99;100.00;97272.45;106940;1268;25409;-80
2023/08/27 08:59:04;;;;;;;8.60;7.70;;;;;;;22.14;100.00;97255.39;106982;1266;22661;-80
2023/08/27 09:01:32;;;;;;;8.60;7.80;;;;;;;22.29;100.00;97258.02;107102;1279;22783;-81
2023/08/27 09:04:03;;;;;;;9.00;8.10;;;;;;;22.40;100.00;97257.70;106993;1268;22849;-83
2023/08/27 09:06:33;;;;;;;7.20;6.40;;;;;;;22.41;100.00;97258.80;106915;1268;22609;-83
2023/08/27 09:09:01;;;;;;;8.70;7.80;;;;;;;22.47;100.00;97254.64;106952;1276;22600;-83
2023/08/27 09:11:35;;;;;;;9.20;7.40;;;;;;;22.57;100.00;97246.79;107047;1280;22546;-83
2023/08/27 09:14:03;;;;;;;;;;;;;;;22.58;100.00;97250.01;107070;1278;22634;-81
2023/08/27 09:16:32;;;;;;;10.20;9.20;;;;;;;22.51;100.00;97250.57;106985;1273;22549;-81
2023/08/27 09:19:02;;;;;;;10.90;8.70;;;;;;;22.37;100.00;97252.69;106981;1279;24231;-83
2023/08/27 09:21:30;;;;;;;8.50;7.60;;;;;;;22.38;100.00;97250.02;106993;1278;22530;-84
2023/08/27 09:23:58;;;;;;;12.10;8.50;;;;;;;22.53;100.00;97245.00;107040;1268;23439;-83
2023/08/27 09:26:27;;;;;;;7.30;6.60;;;;;;;22.61;100.00;97240.12;106982;1263;24421;-84
2023/08/27 09:28:56;;;;;;;8.30;7.40;;;;;;;22.82;100.00;97246.77;106907;1275;23395;-83
2023/08/27 09:31:41;;;;;;;9.70;8.80;;;;;;;23.03;100.00;97249.64;107015;1278;22649;-84
2023/08/27 09:34:10;;;;;;;11.40;10.30;;;;;;;23.00;100.00;97256.16;106816;1280;22562;-86
2023/08/27 09:36:38;;;;;;;11.20;10.10;;;;;;;22.83;100.00;97257.60;106934;1275;24759;-84
2023/08/27 09:39:13;;;;;;;10.60;9.50;;;;;;;22.75;100.00;97254.55;106886;1279;22565;-85
2023/08/27 09:41:43;;;;;;;10.60;9.50;;;;;;;22.82;100.00;97255.15;108190;1279;22475;-87
2023/08/27 09:44:38;;;;;;;11.00;9.90;;;;;;;22.77;99.89;97257.36;106924;1280;24235;-87
2023/08/27 09:47:08;;;;;;;12.90;11.70;;;;;;;22.61;99.92;97252.91;106857;1280;23202;-84
2023/08/27 09:49:42;;;;;;;13.30;12.10;;;;;;;22.55;100.00;97256.29;107155;1280;22563;-85
2023/08/27 09:52:22;;;;;;;13.30;12.00;;;;;;;22.55;99.06;97256.52;106892;1280;22544;-86
2023/08/27 09:54:52;;;;;;;11.60;10.60;;;;;;;22.47;99.45;97261.62;106841;1279;22550;-84
2023/08/27 09:57:20;;;;;;;11.60;10.60;;;;;;;22.42;99.15;97255.27;106914;1277;22559;-85
2023/08/27 09:59:52;;;;;;;11.10;9.80;;;;;;;22.41;99.72;97250.72;106886;1271;25345;-87
2023/08/27 10:02:20;;;;;;;10.30;9.30;;;;;;;22.57;100.00;97247.73;106777;1279;24213;-82
2023/08/27 10:04:54;;;;;;;13.40;12.20;;;;;;;22.88;100.00;97244.15;106985;1280;22524;-81
2023/08/27 10:07:22;;;;;;;13.40;10.00;;;;;;;23.13;99.97;97240.58;107066;1279;22514;-84
2023/08/27 10:09:54;;;;;;;10.10;8.70;;;;;;;23.40;99.95;97232.86;107103;1271;25343;-82
2023/08/27 10:12:23;;;;;;;12.40;11.30;;;;;;;23.70;99.78;97230.77;107025;1266;22607;-84
2023/08/27 10:14:51;;;;;;;10.50;9.60;;;;;;;23.91;99.33;97226.88;107021;1280;22546;-82
2023/08/27 10:17:20;;;;;;;11.20;10.30;;;;;;;24.12;98.95;97227.03;107052;1256;24280;-83
2023/08/27 10:19:49;;;;;;;12.20;11.10;;;;;;;24.24;97.37;97231.34;107059;1280;22537;-82
2023/08/27 10:22:18;;;;;;;10.60;9.60;;;;;;;24.24;96.82;97235.45;107053;1278;25483;-83
2023/08/27 10:24:50;;;;;;;12.40;10.10;;;;;;;24.23;96.86;97234.52;107053;1270;25477;-82
2023/08/27 10:27:18;;;;;;;10.70;9.70;;;;;;;24.29;96.44;97230.92;107338;1273;22578;-82
2023/08/27 10:29:46;;;;;;;11.50;10.40;;;;;;;24.21;95.09;97234.44;109112;1279;22489;-83
2023/08/27 10:32:15;;;;;;;10.50;9.00;;;;;;;24.20;95.60;97235.08;108744;1273;22550;-83
2023/08/27 10:34:43;;;;;;;8.60;7.70;;;;;;;24.23;95.16;97239.00;108551;1279;22535;-80
2023/08/27 10:37:12;;;;;;;10.20;9.10;;;;;;;24.25;95.37;97243.38;108339;1280;22627;-84
2023/08/27 10:40:10;;;;;;;11.70;10.00;;;;;;;24.23;94.73;97243.25;106817;1280;22951;-84
2023/08/27 10:43:26;;;;;;;11.90;10.70;;;;;;;24.00;93.48;97239.55;107315;1280;22689;-92
2023/08/27 10:46:18;;;;;;;12.90;11.30;;;;;;;23.76;93.08;97246.92;106930;1280;25443;-92
2023/08/27 10:48:51;;;;;;;12.60;11.30;;;;;;;23.57;92.93;97242.05;107055;1280;22540;-92
2023/08/27 10:51:27;;;;;;;11.80;10.50;;;;;;;23.48;93.57;97235.42;107514;1272;24063;-90
2023/08/27 10:53:58;;;;;;;11.50;10.50;;;;;;;23.47;93.00;97232.75;107010;1272;25322;-90
2023/08/27 10:57:17;;;;;;;12.70;10.20;;;;;;;23.42;92.70;97231.84;109206;1279;23048;-88
2023/08/27 10:59:45;;;;;;;12.80;11.50;;;;;;;23.30;92.05;97226.70;110118;1279;22654;-91
2023/08/27 11:02:16;;;;;;;12.50;11.40;;;;;;;23.19;92.46;97228.31;109924;1279;22533;-91
2023/08/27 11:04:53;;;;;;;12.20;11.10;;;;;;;23.18;91.66;97228.48;107262;1279;25291;-89
2023/08/27 11:07:22;;;;;;;10.30;9.20;;;;;;;23.08;91.88;97220.03;106974;1279;25445;-88
2023/08/27 11:09:58;;;;;;;9.80;8.80;;;;;;;23.22;93.62;97211.10;106978;1279;22551;-89
2023/08/27 11:12:28;;;;;;;13.60;11.60;;;;;;;23.48;92.43;97206.59;107199;1278;25358;-87
2023/08/27 11:15:10;;;;;;;12.50;11.50;;;;;;;23.60;92.18;97204.95;106849;1276;24278;-90
2023/08/27 11:17:39;;;;;;;12.40;11.00;;;;;;;23.73;92.44;97203.65;106847;1274;22998;-89
2023/08/27 11:20:22;;;;;;;12.30;11.20;;;;;;;23.80;91.97;97201.56;107022;1276;25321;-88
2023/08/27 11:22:55;;;;;;;12.30;10.70;;;;;;;23.90;92.52;97192.13;107182;1278;23984;-89
2023/08/27 11:25:28;;;;;;;11.90;10.80;;;;;;;24.13;92.76;97189.92;106995;1279;24214;-90
2023/08/27 11:27:59;;;;;;;10.60;9.70;;;;;;;24.40;92.42;97191.36;107161;1279;22540;-90
2023/08/27 11:30:29;;;;;;;11.50;10.40;;;;;;;24.58;91.67;97188.36;106992;1279;22662;-89